Sheldon, IA

12:39 AM CDT on July 25, 2017 (GMT -0500)
Sheldon Municipal

Weather History for KSHL - April, 2014

Change the Weather History Date:

Thursday, April 10, 2014

  Actual Average Record
Temperature  
Mean Temperature 50 °F -  
Max Temperature 62 °F 56 °F 84 °F (1977)
Min Temperature 37 °F 31 °F 17 °F (1973)
Degree Days  
Heating Degree Days 16    
Moisture  
Dew Point 29 °F    
Average Humidity 48    
Maximum Humidity 87    
Minimum Humidity 19    
Precipitation  
Precipitation 0.00 in - - ()
Sea Level Pressure  
Sea Level Pressure 29.86 in    
Wind  
Wind Speed 12 mph (NNW)    
Max Wind Speed 23 mph    
Max Gust Speed 37 mph    
Visibility 10 miles    
Events      
Averages and records for this station are not official NWS values.
T = Trace of Precipitation, MM = Missing Value Source: NWS Daily Summary

Daily Weather History Graph

Daily Weather History Graph

Search for Another Location

Airport or City:

Trip Planner

Search our weather history database for the weather conditions in past years. The results will help you decide how hot, cold, wet, or windy it might be!

Date:

Astronomy

Apr. 10, 2014 Rise Set
Actual Time 6:49 AM CDT 8:00 PM CDT
Civil Twilight 6:20 AM CDT 8:29 PM CDT
Nautical Twilight 5:45 AM CDT 9:04 PM CDT
Astronomical Twilight 5:08 AM CDT 9:41 PM CDT
Moon 3:38 PM CDT (4/10) 4:20 AM CDT (4/10)
Length of Visible Light 14h 09m
Length of Day
13h 10m
Waxing Gibbous, 80% of the Moon is Illuminated
Apr 10
Waxing Gibbous
Apr 15
Full
Apr 22
Last Quarter
Apr 29
New
May 6
First Quarter

Hourly Weather History & Observations

Time (CDT) Temp. Windchill Dew Point Humidity Pressure Visibility Wind Dir Wind Speed Gust Speed Precip Events Conditions
12:15 AM 60.8 °F - 33.8 °F 36% 29.62 in 10.0 mi WNW 10.4 mph 24.2 mph N/A   Scattered Clouds
12:35 AM 60.8 °F - 35.6 °F 39% 29.64 in 10.0 mi NNW 18.4 mph - N/A   Scattered Clouds
12:55 AM 60.8 °F - 39.2 °F 45% 29.65 in - NNE 23.0 mph 36.8 mph N/A   Scattered Clouds
1:15 AM 57.2 °F - 41.0 °F 55% 29.67 in 10.0 mi North 13.8 mph 20.7 mph N/A   Mostly Cloudy
1:35 AM 53.6 °F - 42.8 °F 67% 29.69 in 10.0 mi North 16.1 mph - N/A   Partly Cloudy
1:55 AM 51.8 °F - 41.0 °F 67% 29.70 in 10.0 mi North 13.8 mph - N/A   Clear
2:15 AM 50.0 °F - 41.0 °F 71% 29.70 in 10.0 mi North 18.4 mph - N/A   Clear
2:35 AM 50.0 °F - 39.2 °F 66% 29.71 in 10.0 mi North 16.1 mph 24.2 mph N/A   Clear
2:55 AM 46.4 °F 40.4 °F 39.2 °F 76% 29.71 in 10.0 mi North 13.8 mph - N/A   Clear
3:15 AM 46.4 °F 40.7 °F 37.4 °F 71% 29.72 in 10.0 mi North 12.7 mph - N/A   Clear
3:35 AM 44.6 °F 38.8 °F 35.6 °F 71% 29.73 in 10.0 mi North 11.5 mph - N/A   Clear
3:55 AM 42.8 °F 38.0 °F 35.6 °F 76% 29.76 in 10.0 mi NNW 8.1 mph - N/A   Clear
4:15 AM 41.0 °F 35.2 °F 35.6 °F 81% 29.76 in 10.0 mi NNW 9.2 mph - N/A   Clear
4:35 AM 41.0 °F 36.4 °F 35.6 °F 81% 29.74 in 10.0 mi North 6.9 mph - N/A   Clear
4:55 AM 39.2 °F 35.0 °F 35.6 °F 87% 29.75 in 10.0 mi North 5.8 mph - N/A   Clear
5:15 AM 37.4 °F 33.8 °F 33.8 °F 87% 29.75 in 10.0 mi NNW 4.6 mph - N/A   Clear
5:35 AM 37.4 °F 30.8 °F 33.8 °F 87% 29.78 in 10.0 mi NW 9.2 mph - N/A   Clear
5:55 AM 39.2 °F 33.6 °F 33.8 °F 81% 29.78 in 10.0 mi NNW 8.1 mph - N/A   Clear
6:15 AM 37.4 °F 31.4 °F 33.8 °F 87% 29.79 in 10.0 mi NW 8.1 mph - N/A   Clear
6:35 AM 39.2 °F 34.2 °F 35.6 °F 87% 29.81 in 10.0 mi NW 6.9 mph - N/A   Mostly Cloudy
6:55 AM 41.0 °F 36.4 °F 35.6 °F 81% 29.84 in 10.0 mi WNW 6.9 mph - N/A   Overcast
7:15 AM 41.0 °F 37.1 °F 35.6 °F 81% 29.84 in 10.0 mi NW 5.8 mph - N/A   Overcast
7:35 AM 41.0 °F 37.1 °F 35.6 °F 81% 29.85 in 10.0 mi WNW 5.8 mph - N/A   Partly Cloudy
7:55 AM 41.0 °F 38.0 °F 35.6 °F 81% 29.86 in 10.0 mi WNW 4.6 mph - N/A   Clear
8:15 AM 42.8 °F 40.1 °F 35.6 °F 76% 29.87 in 10.0 mi NW 4.6 mph - N/A   Clear
8:35 AM 46.4 °F 41.5 °F 33.8 °F 62% 29.88 in 10.0 mi NW 10.4 mph - N/A   Clear
8:55 AM 48.2 °F - 32.0 °F 54% 29.88 in 10.0 mi NW 10.4 mph - N/A   Clear
9:15 AM 48.2 °F - 32.0 °F 54% 29.89 in 10.0 mi NNW 10.4 mph - N/A   Clear
9:35 AM 50.0 °F - 28.4 °F 43% 29.89 in 10.0 mi NNW 10.4 mph - N/A   Clear
9:55 AM 50.0 °F - 28.4 °F 43% 29.89 in 10.0 mi NNW 12.7 mph - N/A   Clear
10:15 AM 51.8 °F - 26.6 °F 38% 29.90 in 10.0 mi NNW 15.0 mph - N/A   Clear
10:35 AM 53.6 °F - 26.6 °F 35% 29.91 in 10.0 mi NNW 12.7 mph - N/A   Clear
10:55 AM 55.4 °F - 28.4 °F 36% 29.92 in 10.0 mi North 13.8 mph 19.6 mph N/A   Clear
11:15 AM 55.4 °F - 28.4 °F 36% 29.92 in 10.0 mi NNW 15.0 mph - N/A   Clear
11:35 AM 57.2 °F - 28.4 °F 33% 29.93 in 10.0 mi NNW 16.1 mph 23.0 mph N/A   Clear
11:55 AM 57.2 °F - 28.4 °F 33% 29.92 in 10.0 mi NNW 19.6 mph - N/A   Clear
12:15 PM 59.0 °F - 26.6 °F 29% 29.91 in 9.0 mi NW 19.6 mph 25.3 mph N/A   Clear
12:35 PM 59.0 °F - 26.6 °F 29% 29.91 in 9.0 mi NNW 21.9 mph - N/A   Clear
12:55 PM 60.8 °F - 28.4 °F 29% 29.91 in 9.0 mi WNW 19.6 mph 26.5 mph N/A   Clear
1:15 PM 60.8 °F - 23.0 °F 23% 29.91 in 10.0 mi NW 20.7 mph 27.6 mph N/A   Clear
1:35 PM 60.8 °F - 23.0 °F 23% 29.91 in 10.0 mi NNW 20.7 mph 29.9 mph N/A   Clear
1:55 PM 60.8 °F - 23.0 °F 23% 29.91 in 10.0 mi NW 21.9 mph - N/A   Clear
2:15 PM 62.6 °F - 23.0 °F 22% 29.91 in 10.0 mi NW 21.9 mph 27.6 mph N/A   Clear
2:35 PM 62.6 °F - 23.0 °F 22% 29.91 in 10.0 mi NW 19.6 mph 26.5 mph N/A   Clear
2:55 PM 62.6 °F - 21.2 °F 20% 29.91 in 10.0 mi NW 11.5 mph 29.9 mph N/A   Clear
3:15 PM 62.6 °F - 21.2 °F 20% 29.91 in 10.0 mi NNW 12.7 mph 26.5 mph N/A   Clear
3:35 PM 62.6 °F - 19.4 °F 19% 29.91 in 10.0 mi NW 15.0 mph 26.5 mph N/A   Clear
3:55 PM 62.6 °F - 21.2 °F 20% 29.90 in 10.0 mi NW 23.0 mph 29.9 mph N/A   Clear
4:15 PM 62.6 °F - 21.2 °F 20% 29.90 in 10.0 mi NNW 18.4 mph 29.9 mph N/A   Clear
4:35 PM 62.6 °F - 21.2 °F 20% 29.90 in 10.0 mi NNW 18.4 mph - N/A   Clear
4:55 PM 62.6 °F - 21.2 °F 20% 29.90 in 10.0 mi NW 18.4 mph 26.5 mph N/A   Clear
5:15 PM 62.6 °F - 23.0 °F 22% 29.90 in 10.0 mi NW 16.1 mph 34.5 mph N/A   Clear
5:35 PM 62.6 °F - 21.2 °F 20% 29.91 in 10.0 mi NW 17.3 mph - N/A   Clear
5:55 PM 62.6 °F - 21.2 °F 20% 29.91 in 10.0 mi NNW 17.3 mph - N/A   Clear
6:15 PM 60.8 °F - 21.2 °F 22% 29.91 in 10.0 mi NNW 19.6 mph - N/A   Clear
6:35 PM 60.8 °F - 21.2 °F 22% 29.92 in 10.0 mi NNW 12.7 mph 20.7 mph N/A   Clear
6:55 PM 60.8 °F - 23.0 °F 23% 29.92 in 10.0 mi NNW 13.8 mph - N/A   Clear
7:15 PM 59.0 °F - 23.0 °F 25% 29.92 in 10.0 mi NNW 10.4 mph - N/A   Clear
7:35 PM 55.4 °F - 24.8 °F 31% 29.93 in 10.0 mi North 8.1 mph - N/A   Clear
7:55 PM 51.8 °F - 26.6 °F 38% 29.93 in 10.0 mi North 4.6 mph - N/A   Clear
8:15 PM 48.2 °F - 26.6 °F 43% 29.94 in 10.0 mi Calm Calm - N/A   Clear
8:35 PM 50.0 °F - 26.6 °F 40% 29.95 in 10.0 mi Calm Calm - N/A   Clear
8:55 PM 46.4 °F - 26.6 °F 46% 29.95 in 10.0 mi Calm Calm - N/A   Clear
9:15 PM 46.4 °F - 28.4 °F 50% 29.96 in 10.0 mi Calm Calm - N/A   Clear
9:35 PM 46.4 °F - 26.6 °F 46% 29.96 in 10.0 mi Calm Calm - N/A   Clear
9:55 PM 44.6 °F 43.1 °F 28.4 °F 53% 29.97 in 10.0 mi SSE 3.5 mph - N/A   Clear
10:15 PM 42.8 °F 41.1 °F 28.4 °F 57% 29.97 in 10.0 mi SSE 3.5 mph - N/A   Clear
10:35 PM 42.8 °F 40.1 °F 28.4 °F 57% 29.96 in 10.0 mi SSE 4.6 mph - N/A   Clear
10:55 PM 44.6 °F 41.4 °F 28.4 °F 53% 29.96 in 10.0 mi SSE 5.8 mph - N/A   Clear
11:15 PM 41.0 °F - 28.4 °F 61% 29.96 in 10.0 mi Calm Calm - N/A   Clear
11:35 PM 39.2 °F - 26.6 °F 61% 29.96 in 10.0 mi Calm Calm - N/A   Clear
11:55 PM 41.0 °F 36.4 °F 26.6 °F 57% 29.96 in 10.0 mi SSE 6.9 mph - N/A   Clear